sensor_id;sensor_type;location;lat;lon;timestamp;P1;durP1;ratioP1;P2;durP2;ratioP2
3815;SDS011;1923;48.154;11.536;2024-02-23T00:01:28;0.60;;;0.40;;
3815;SDS011;1923;48.154;11.536;2024-02-23T00:03:56;0.60;;;0.30;;
3815;SDS011;1923;48.154;11.536;2024-02-23T00:06:24;0.50;;;0.20;;
3815;SDS011;1923;48.154;11.536;2024-02-23T00:08:54;1.00;;;0.40;;
3815;SDS011;1923;48.154;11.536;2024-02-23T00:11:23;0.60;;;0.30;;
3815;SDS011;1923;48.154;11.536;2024-02-23T00:13:51;0.73;;;0.30;;
3815;SDS011;1923;48.154;11.536;2024-02-23T00:16:19;0.50;;;0.23;;
3815;SDS011;1923;48.154;11.536;2024-02-23T00:18:49;2.57;;;0.30;;
3815;SDS011;1923;48.154;11.536;2024-02-23T00:21:17;0.60;;;0.27;;
3815;SDS011;1923;48.154;11.536;2024-02-23T00:23:45;1.60;;;0.30;;
3815;SDS011;1923;48.154;11.536;2024-02-23T00:26:13;0.67;;;0.30;;
3815;SDS011;1923;48.154;11.536;2024-02-23T00:28:41;0.87;;;0.30;;
3815;SDS011;1923;48.154;11.536;2024-02-23T00:31:09;0.50;;;0.30;;
3815;SDS011;1923;48.154;11.536;2024-02-23T00:33:37;0.50;;;0.30;;
3815;SDS011;1923;48.154;11.536;2024-02-23T00:36:10;0.60;;;0.30;;
3815;SDS011;1923;48.154;11.536;2024-02-23T00:38:39;0.67;;;0.40;;
3815;SDS011;1923;48.154;11.536;2024-02-23T00:41:10;0.50;;;0.20;;
3815;SDS011;1923;48.154;11.536;2024-02-23T00:43:38;1.37;;;0.30;;
3815;SDS011;1923;48.154;11.536;2024-02-23T00:46:07;2.77;;;0.30;;
3815;SDS011;1923;48.154;11.536;2024-02-23T00:48:36;0.90;;;0.30;;
3815;SDS011;1923;48.154;11.536;2024-02-23T00:51:04;0.50;;;0.33;;
3815;SDS011;1923;48.154;11.536;2024-02-23T00:53:33;0.70;;;0.30;;
3815;SDS011;1923;48.154;11.536;2024-02-23T00:56:01;0.50;;;0.30;;
3815;SDS011;1923;48.154;11.536;2024-02-23T00:58:29;0.70;;;0.30;;
3815;SDS011;1923;48.154;11.536;2024-02-23T01:00:58;1.17;;;0.30;;
3815;SDS011;1923;48.154;11.536;2024-02-23T01:03:27;0.60;;;0.30;;
3815;SDS011;1923;48.154;11.536;2024-02-23T01:05:55;0.50;;;0.30;;
3815;SDS011;1923;48.154;11.536;2024-02-23T01:08:23;0.60;;;0.30;;
3815;SDS011;1923;48.154;11.536;2024-02-23T01:10:52;0.60;;;0.30;;
3815;SDS011;1923;48.154;11.536;2024-02-23T01:13:20;0.67;;;0.30;;
3815;SDS011;1923;48.154;11.536;2024-02-23T01:15:49;1.17;;;0.20;;
3815;SDS011;1923;48.154;11.536;2024-02-23T01:18:17;0.50;;;0.30;;
3815;SDS011;1923;48.154;11.536;2024-02-23T01:20:45;0.57;;;0.30;;
3815;SDS011;1923;48.154;11.536;2024-02-23T01:23:13;0.70;;;0.20;;
3815;SDS011;1923;48.154;11.536;2024-02-23T01:25:41;0.80;;;0.30;;
3815;SDS011;1923;48.154;11.536;2024-02-23T01:28:10;1.63;;;0.30;;
3815;SDS011;1923;48.154;11.536;2024-02-23T01:30:38;0.87;;;0.30;;
3815;SDS011;1923;48.154;11.536;2024-02-23T01:33:06;0.60;;;0.30;;
3815;SDS011;1923;48.154;11.536;2024-02-23T01:35:34;1.60;;;0.40;;
3815;SDS011;1923;48.154;11.536;2024-02-23T01:38:03;0.90;;;0.37;;
3815;SDS011;1923;48.154;11.536;2024-02-23T01:40:31;0.50;;;0.27;;
3815;SDS011;1923;48.154;11.536;2024-02-23T01:43:03;0.50;;;0.30;;
3815;SDS011;1923;48.154;11.536;2024-02-23T01:45:33;2.67;;;0.30;;
3815;SDS011;1923;48.154;11.536;2024-02-23T01:48:01;1.93;;;0.20;;
3815;SDS011;1923;48.154;11.536;2024-02-23T01:50:30;0.60;;;0.30;;
3815;SDS011;1923;48.154;11.536;2024-02-23T01:53:00;0.60;;;0.30;;
3815;SDS011;1923;48.154;11.536;2024-02-23T01:55:29;0.60;;;0.40;;
3815;SDS011;1923;48.154;11.536;2024-02-23T01:58:02;0.60;;;0.30;;
3815;SDS011;1923;48.154;11.536;2024-02-23T02:00:35;1.40;;;0.33;;
3815;SDS011;1923;48.154;11.536;2024-02-23T02:03:04;0.50;;;0.30;;
3815;SDS011;1923;48.154;11.536;2024-02-23T02:05:37;0.50;;;0.23;;
3815;SDS011;1923;48.154;11.536;2024-02-23T02:08:05;1.03;;;0.30;;
3815;SDS011;1923;48.154;11.536;2024-02-23T02:10:33;0.50;;;0.30;;
3815;SDS011;1923;48.154;11.536;2024-02-23T02:13:02;0.50;;;0.30;;
3815;SDS011;1923;48.154;11.536;2024-02-23T02:15:31;1.03;;;0.70;;
3815;SDS011;1923;48.154;11.536;2024-02-23T02:18:00;0.50;;;0.40;;
3815;SDS011;1923;48.154;11.536;2024-02-23T02:20:28;0.50;;;0.20;;
3815;SDS011;1923;48.154;11.536;2024-02-23T02:23:00;0.50;;;0.20;;
3815;SDS011;1923;48.154;11.536;2024-02-23T02:25:29;0.70;;;0.30;;
3815;SDS011;1923;48.154;11.536;2024-02-23T02:27:57;2.43;;;0.50;;
3815;SDS011;1923;48.154;11.536;2024-02-23T02:30:25;0.83;;;0.27;;
3815;SDS011;1923;48.154;11.536;2024-02-23T02:32:53;0.60;;;0.33;;
3815;SDS011;1923;48.154;11.536;2024-02-23T02:35:22;0.97;;;0.40;;
3815;SDS011;1923;48.154;11.536;2024-02-23T02:37:50;0.60;;;0.27;;
3815;SDS011;1923;48.154;11.536;2024-02-23T02:40:18;0.70;;;0.30;;
3815;SDS011;1923;48.154;11.536;2024-02-23T02:42:46;0.50;;;0.30;;
3815;SDS011;1923;48.154;11.536;2024-02-23T02:45:14;0.50;;;0.20;;
3815;SDS011;1923;48.154;11.536;2024-02-23T02:47:46;0.50;;;0.30;;
3815;SDS011;1923;48.154;11.536;2024-02-23T02:50:14;0.60;;;0.50;;
3815;SDS011;1923;48.154;11.536;2024-02-23T02:52:43;0.60;;;0.30;;
3815;SDS011;1923;48.154;11.536;2024-02-23T02:55:12;0.50;;;0.27;;
3815;SDS011;1923;48.154;11.536;2024-02-23T02:57:40;0.50;;;0.30;;
3815;SDS011;1923;48.154;11.536;2024-02-23T03:00:11;0.70;;;0.40;;
3815;SDS011;1923;48.154;11.536;2024-02-23T03:02:40;0.60;;;0.30;;
3815;SDS011;1923;48.154;11.536;2024-02-23T03:05:08;0.50;;;0.40;;
3815;SDS011;1923;48.154;11.536;2024-02-23T03:07:36;0.70;;;0.30;;
3815;SDS011;1923;48.154;11.536;2024-02-23T03:10:06;0.50;;;0.30;;
3815;SDS011;1923;48.154;11.536;2024-02-23T03:12:34;0.70;;;0.30;;
3815;SDS011;1923;48.154;11.536;2024-02-23T03:15:03;1.27;;;0.30;;
3815;SDS011;1923;48.154;11.536;2024-02-23T03:17:32;0.60;;;0.30;;
3815;SDS011;1923;48.154;11.536;2024-02-23T03:20:00;0.60;;;0.40;;
3815;SDS011;1923;48.154;11.536;2024-02-23T03:22:34;0.60;;;0.40;;
3815;SDS011;1923;48.154;11.536;2024-02-23T03:25:02;0.50;;;0.30;;
3815;SDS011;1923;48.154;11.536;2024-02-23T03:27:36;0.50;;;0.30;;
3815;SDS011;1923;48.154;11.536;2024-02-23T03:30:04;0.60;;;0.30;;
3815;SDS011;1923;48.154;11.536;2024-02-23T03:32:34;0.50;;;0.30;;
3815;SDS011;1923;48.154;11.536;2024-02-23T03:35:05;1.47;;;0.40;;
3815;SDS011;1923;48.154;11.536;2024-02-23T03:37:34;0.87;;;0.87;;
3815;SDS011;1923;48.154;11.536;2024-02-23T03:40:02;0.50;;;0.20;;
3815;SDS011;1923;48.154;11.536;2024-02-23T03:42:31;0.70;;;0.60;;
3815;SDS011;1923;48.154;11.536;2024-02-23T03:45:00;0.50;;;0.30;;
3815;SDS011;1923;48.154;11.536;2024-02-23T03:47:31;1.77;;;0.30;;
3815;SDS011;1923;48.154;11.536;2024-02-23T03:50:00;0.60;;;0.30;;
3815;SDS011;1923;48.154;11.536;2024-02-23T03:52:28;0.60;;;0.30;;
3815;SDS011;1923;48.154;11.536;2024-02-23T03:54:56;0.80;;;0.60;;
3815;SDS011;1923;48.154;11.536;2024-02-23T03:57:24;0.80;;;0.43;;
3815;SDS011;1923;48.154;11.536;2024-02-23T03:59:52;2.80;;;0.33;;
3815;SDS011;1923;48.154;11.536;2024-02-23T04:02:22;0.60;;;0.30;;
3815;SDS011;1923;48.154;11.536;2024-02-23T04:04:50;0.87;;;0.43;;
3815;SDS011;1923;48.154;11.536;2024-02-23T04:07:18;0.60;;;0.40;;
3815;SDS011;1923;48.154;11.536;2024-02-23T04:09:47;0.50;;;0.40;;
3815;SDS011;1923;48.154;11.536;2024-02-23T04:12:18;0.70;;;0.40;;
3815;SDS011;1923;48.154;11.536;2024-02-23T04:14:47;0.50;;;0.30;;
3815;SDS011;1923;48.154;11.536;2024-02-23T04:17:15;0.50;;;0.37;;
3815;SDS011;1923;48.154;11.536;2024-02-23T04:19:44;2.70;;;0.50;;
3815;SDS011;1923;48.154;11.536;2024-02-23T04:22:13;0.73;;;0.50;;
3815;SDS011;1923;48.154;11.536;2024-02-23T04:24:41;1.27;;;0.60;;
3815;SDS011;1923;48.154;11.536;2024-02-23T04:27:09;1.40;;;0.50;;
3815;SDS011;1923;48.154;11.536;2024-02-23T04:29:37;1.80;;;0.37;;
3815;SDS011;1923;48.154;11.536;2024-02-23T04:32:05;0.70;;;0.50;;
3815;SDS011;1923;48.154;11.536;2024-02-23T04:34:33;1.00;;;0.47;;
3815;SDS011;1923;48.154;11.536;2024-02-23T04:37:04;1.63;;;0.50;;
3815;SDS011;1923;48.154;11.536;2024-02-23T04:39:32;0.50;;;0.30;;
3815;SDS011;1923;48.154;11.536;2024-02-23T04:42:00;0.90;;;0.70;;
3815;SDS011;1923;48.154;11.536;2024-02-23T04:44:32;0.87;;;0.50;;
3815;SDS011;1923;48.154;11.536;2024-02-23T04:47:00;1.03;;;0.50;;
3815;SDS011;1923;48.154;11.536;2024-02-23T04:49:28;0.70;;;0.40;;
3815;SDS011;1923;48.154;11.536;2024-02-23T04:51:56;1.07;;;0.40;;
3815;SDS011;1923;48.154;11.536;2024-02-23T04:54:26;0.67;;;0.43;;
3815;SDS011;1923;48.154;11.536;2024-02-23T04:56:54;1.47;;;0.47;;
3815;SDS011;1923;48.154;11.536;2024-02-23T04:59:22;1.07;;;0.60;;
3815;SDS011;1923;48.154;11.536;2024-02-23T05:01:50;1.47;;;0.53;;
3815;SDS011;1923;48.154;11.536;2024-02-23T05:04:18;0.80;;;0.40;;
3815;SDS011;1923;48.154;11.536;2024-02-23T05:06:46;1.00;;;0.40;;
3815;SDS011;1923;48.154;11.536;2024-02-23T05:09:14;2.00;;;0.40;;
3815;SDS011;1923;48.154;11.536;2024-02-23T05:11:44;0.57;;;0.37;;
3815;SDS011;1923;48.154;11.536;2024-02-23T05:14:14;0.70;;;0.40;;
3815;SDS011;1923;48.154;11.536;2024-02-23T05:16:42;2.10;;;0.57;;
3815;SDS011;1923;48.154;11.536;2024-02-23T05:19:10;0.80;;;0.60;;
3815;SDS011;1923;48.154;11.536;2024-02-23T05:21:38;0.60;;;0.50;;
3815;SDS011;1923;48.154;11.536;2024-02-23T05:24:06;0.60;;;0.50;;
3815;SDS011;1923;48.154;11.536;2024-02-23T05:26:34;1.00;;;0.43;;
3815;SDS011;1923;48.154;11.536;2024-02-23T05:29:04;0.70;;;0.70;;
3815;SDS011;1923;48.154;11.536;2024-02-23T05:31:43;7.10;;;0.70;;
3815;SDS011;1923;48.154;11.536;2024-02-23T05:34:13;6.07;;;2.10;;
3815;SDS011;1923;48.154;11.536;2024-02-23T05:36:42;2.20;;;1.20;;
3815;SDS011;1923;48.154;11.536;2024-02-23T05:39:12;1.13;;;0.60;;
3815;SDS011;1923;48.154;11.536;2024-02-23T05:41:41;2.50;;;0.93;;
3815;SDS011;1923;48.154;11.536;2024-02-23T05:44:11;1.80;;;0.87;;
3815;SDS011;1923;48.154;11.536;2024-02-23T05:46:42;11.43;;;4.20;;
3815;SDS011;1923;48.154;11.536;2024-02-23T05:49:11;7.23;;;3.60;;
3815;SDS011;1923;48.154;11.536;2024-02-23T05:51:39;14.10;;;4.47;;
3815;SDS011;1923;48.154;11.536;2024-02-23T05:54:07;23.40;;;9.73;;
3815;SDS011;1923;48.154;11.536;2024-02-23T05:56:36;9.30;;;3.33;;
3815;SDS011;1923;48.154;11.536;2024-02-23T05:59:04;9.20;;;3.17;;
3815;SDS011;1923;48.154;11.536;2024-02-23T06:01:34;7.13;;;2.30;;
3815;SDS011;1923;48.154;11.536;2024-02-23T06:04:02;7.70;;;3.20;;
3815;SDS011;1923;48.154;11.536;2024-02-23T06:06:31;5.20;;;2.23;;
3815;SDS011;1923;48.154;11.536;2024-02-23T06:08:59;1.50;;;1.00;;
3815;SDS011;1923;48.154;11.536;2024-02-23T06:11:29;2.60;;;1.47;;
3815;SDS011;1923;48.154;11.536;2024-02-23T06:13:57;1.40;;;0.87;;
3815;SDS011;1923;48.154;11.536;2024-02-23T06:16:25;1.70;;;0.90;;
3815;SDS011;1923;48.154;11.536;2024-02-23T06:18:54;2.60;;;0.90;;
3815;SDS011;1923;48.154;11.536;2024-02-23T06:21:22;1.77;;;0.93;;
3815;SDS011;1923;48.154;11.536;2024-02-23T06:23:50;0.80;;;0.63;;
3815;SDS011;1923;48.154;11.536;2024-02-23T06:26:21;0.90;;;0.73;;
3815;SDS011;1923;48.154;11.536;2024-02-23T06:28:50;1.40;;;0.70;;
3815;SDS011;1923;48.154;11.536;2024-02-23T06:31:18;0.87;;;0.50;;
3815;SDS011;1923;48.154;11.536;2024-02-23T06:33:46;1.30;;;0.80;;
3815;SDS011;1923;48.154;11.536;2024-02-23T06:36:17;4.20;;;0.70;;
3815;SDS011;1923;48.154;11.536;2024-02-23T06:38:45;3.00;;;0.80;;
3815;SDS011;1923;48.154;11.536;2024-02-23T06:41:14;1.60;;;0.60;;
3815;SDS011;1923;48.154;11.536;2024-02-23T06:43:42;2.87;;;0.90;;
3815;SDS011;1923;48.154;11.536;2024-02-23T06:46:10;0.80;;;0.63;;
3815;SDS011;1923;48.154;11.536;2024-02-23T06:48:39;1.10;;;0.70;;
3815;SDS011;1923;48.154;11.536;2024-02-23T06:51:07;1.23;;;0.60;;
3815;SDS011;1923;48.154;11.536;2024-02-23T06:53:37;1.63;;;0.77;;
3815;SDS011;1923;48.154;11.536;2024-02-23T06:56:05;1.10;;;0.70;;
3815;SDS011;1923;48.154;11.536;2024-02-23T06:58:34;1.20;;;0.87;;
3815;SDS011;1923;48.154;11.536;2024-02-23T07:01:02;1.30;;;0.80;;
3815;SDS011;1923;48.154;11.536;2024-02-23T07:03:56;3.67;;;0.80;;
3815;SDS011;1923;48.154;11.536;2024-02-23T07:06:24;1.73;;;1.10;;
3815;SDS011;1923;48.154;11.536;2024-02-23T07:08:56;1.00;;;0.70;;
3815;SDS011;1923;48.154;11.536;2024-02-23T07:11:24;1.37;;;0.60;;
3815;SDS011;1923;48.154;11.536;2024-02-23T07:13:52;1.50;;;0.70;;
3815;SDS011;1923;48.154;11.536;2024-02-23T07:16:21;2.20;;;0.53;;
3815;SDS011;1923;48.154;11.536;2024-02-23T07:18:49;1.67;;;0.70;;
3815;SDS011;1923;48.154;11.536;2024-02-23T07:21:17;2.00;;;0.87;;
3815;SDS011;1923;48.154;11.536;2024-02-23T07:23:45;2.40;;;1.10;;
3815;SDS011;1923;48.154;11.536;2024-02-23T07:26:15;3.43;;;0.93;;
3815;SDS011;1923;48.154;11.536;2024-02-23T07:28:46;1.90;;;0.70;;
3815;SDS011;1923;48.154;11.536;2024-02-23T07:31:14;1.57;;;0.80;;
3815;SDS011;1923;48.154;11.536;2024-02-23T07:33:42;0.90;;;0.50;;
3815;SDS011;1923;48.154;11.536;2024-02-23T07:36:15;1.47;;;0.70;;
3815;SDS011;1923;48.154;11.536;2024-02-23T07:38:43;1.00;;;0.70;;
3815;SDS011;1923;48.154;11.536;2024-02-23T07:41:12;1.10;;;0.50;;
3815;SDS011;1923;48.154;11.536;2024-02-23T07:43:48;1.30;;;0.63;;
3815;SDS011;1923;48.154;11.536;2024-02-23T07:46:16;0.87;;;0.50;;
3815;SDS011;1923;48.154;11.536;2024-02-23T07:48:45;1.27;;;0.83;;
3815;SDS011;1923;48.154;11.536;2024-02-23T07:51:16;5.30;;;0.70;;
3815;SDS011;1923;48.154;11.536;2024-02-23T07:53:45;1.90;;;0.90;;
3815;SDS011;1923;48.154;11.536;2024-02-23T07:56:13;2.93;;;0.60;;
3815;SDS011;1923;48.154;11.536;2024-02-23T07:58:41;0.63;;;0.40;;
3815;SDS011;1923;48.154;11.536;2024-02-23T08:01:10;1.13;;;0.50;;
3815;SDS011;1923;48.154;11.536;2024-02-23T08:03:39;1.70;;;0.80;;
3815;SDS011;1923;48.154;11.536;2024-02-23T08:06:09;3.63;;;0.83;;
3815;SDS011;1923;48.154;11.536;2024-02-23T08:08:39;3.50;;;1.40;;
3815;SDS011;1923;48.154;11.536;2024-02-23T08:11:07;1.90;;;1.20;;
3815;SDS011;1923;48.154;11.536;2024-02-23T08:13:35;2.07;;;1.20;;
3815;SDS011;1923;48.154;11.536;2024-02-23T08:16:04;0.60;;;0.50;;
3815;SDS011;1923;48.154;11.536;2024-02-23T08:18:33;2.20;;;0.80;;
3815;SDS011;1923;48.154;11.536;2024-02-23T08:21:03;6.03;;;0.77;;
3815;SDS011;1923;48.154;11.536;2024-02-23T08:23:32;2.00;;;0.40;;
3815;SDS011;1923;48.154;11.536;2024-02-23T08:26:00;2.50;;;0.57;;
3815;SDS011;1923;48.154;11.536;2024-02-23T08:28:28;0.97;;;0.50;;
3815;SDS011;1923;48.154;11.536;2024-02-23T08:30:57;1.23;;;0.70;;
3815;SDS011;1923;48.154;11.536;2024-02-23T08:33:25;2.47;;;0.87;;
3815;SDS011;1923;48.154;11.536;2024-02-23T08:35:55;1.10;;;0.40;;
3815;SDS011;1923;48.154;11.536;2024-02-23T08:38:23;1.80;;;0.60;;
3815;SDS011;1923;48.154;11.536;2024-02-23T08:40:51;1.00;;;0.60;;
3815;SDS011;1923;48.154;11.536;2024-02-23T08:43:19;0.77;;;0.40;;
3815;SDS011;1923;48.154;11.536;2024-02-23T08:45:47;1.23;;;0.60;;
3815;SDS011;1923;48.154;11.536;2024-02-23T08:48:15;1.80;;;1.00;;
3815;SDS011;1923;48.154;11.536;2024-02-23T08:50:44;1.67;;;0.60;;
3815;SDS011;1923;48.154;11.536;2024-02-23T08:53:14;0.90;;;0.83;;
3815;SDS011;1923;48.154;11.536;2024-02-23T08:55:42;2.20;;;0.90;;
3815;SDS011;1923;48.154;11.536;2024-02-23T08:58:10;2.33;;;0.70;;
3815;SDS011;1923;48.154;11.536;2024-02-23T09:00:38;1.87;;;0.50;;
3815;SDS011;1923;48.154;11.536;2024-02-23T09:03:06;2.80;;;1.00;;
3815;SDS011;1923;48.154;11.536;2024-02-23T09:05:34;1.70;;;1.00;;
3815;SDS011;1923;48.154;11.536;2024-02-23T09:08:03;1.47;;;0.87;;
3815;SDS011;1923;48.154;11.536;2024-02-23T09:10:33;5.33;;;0.80;;
3815;SDS011;1923;48.154;11.536;2024-02-23T09:13:01;1.00;;;0.60;;
3815;SDS011;1923;48.154;11.536;2024-02-23T09:15:29;2.10;;;0.87;;
3815;SDS011;1923;48.154;11.536;2024-02-23T09:17:58;2.20;;;0.70;;
3815;SDS011;1923;48.154;11.536;2024-02-23T09:20:26;1.73;;;0.77;;
3815;SDS011;1923;48.154;11.536;2024-02-23T09:22:57;6.63;;;0.73;;
3815;SDS011;1923;48.154;11.536;2024-02-23T09:25:25;0.77;;;0.50;;
3815;SDS011;1923;48.154;11.536;2024-02-23T09:27:57;2.70;;;0.77;;
3815;SDS011;1923;48.154;11.536;2024-02-23T09:30:25;2.10;;;0.70;;
3815;SDS011;1923;48.154;11.536;2024-02-23T09:32:53;3.67;;;0.97;;
3815;SDS011;1923;48.154;11.536;2024-02-23T09:35:22;2.50;;;0.50;;
3815;SDS011;1923;48.154;11.536;2024-02-23T09:37:50;6.67;;;0.73;;
3815;SDS011;1923;48.154;11.536;2024-02-23T09:40:18;1.07;;;0.50;;
3815;SDS011;1923;48.154;11.536;2024-02-23T09:42:47;1.23;;;0.50;;
3815;SDS011;1923;48.154;11.536;2024-02-23T09:45:24;2.33;;;0.90;;
3815;SDS011;1923;48.154;11.536;2024-02-23T09:47:53;1.70;;;0.40;;
3815;SDS011;1923;48.154;11.536;2024-02-23T09:50:23;3.00;;;0.87;;
3815;SDS011;1923;48.154;11.536;2024-02-23T09:52:52;3.90;;;1.10;;
3815;SDS011;1923;48.154;11.536;2024-02-23T09:55:21;4.30;;;0.70;;
3815;SDS011;1923;48.154;11.536;2024-02-23T09:57:51;6.20;;;1.07;;
3815;SDS011;1923;48.154;11.536;2024-02-23T10:00:24;3.17;;;0.90;;
3815;SDS011;1923;48.154;11.536;2024-02-23T10:02:53;2.17;;;0.83;;
3815;SDS011;1923;48.154;11.536;2024-02-23T10:05:22;1.50;;;0.70;;
3815;SDS011;1923;48.154;11.536;2024-02-23T10:08:02;2.47;;;0.90;;
3815;SDS011;1923;48.154;11.536;2024-02-23T10:10:32;1.50;;;0.87;;
3815;SDS011;1923;48.154;11.536;2024-02-23T10:13:03;3.07;;;0.97;;
3815;SDS011;1923;48.154;11.536;2024-02-23T10:15:33;1.53;;;0.60;;
3815;SDS011;1923;48.154;11.536;2024-02-23T10:18:01;2.20;;;0.60;;
3815;SDS011;1923;48.154;11.536;2024-02-23T10:20:30;5.67;;;0.80;;
3815;SDS011;1923;48.154;11.536;2024-02-23T10:22:59;1.90;;;1.00;;
3815;SDS011;1923;48.154;11.536;2024-02-23T10:25:27;1.53;;;0.60;;
3815;SDS011;1923;48.154;11.536;2024-02-23T10:27:55;3.47;;;0.60;;
3815;SDS011;1923;48.154;11.536;2024-02-23T10:30:23;3.17;;;0.50;;
3815;SDS011;1923;48.154;11.536;2024-02-23T10:32:53;2.93;;;0.77;;
3815;SDS011;1923;48.154;11.536;2024-02-23T10:35:23;1.27;;;0.70;;
3815;SDS011;1923;48.154;11.536;2024-02-23T10:37:53;1.77;;;0.90;;
3815;SDS011;1923;48.154;11.536;2024-02-23T10:40:22;1.43;;;1.03;;
3815;SDS011;1923;48.154;11.536;2024-02-23T10:42:53;2.20;;;0.70;;
3815;SDS011;1923;48.154;11.536;2024-02-23T10:45:28;2.20;;;0.90;;
3815;SDS011;1923;48.154;11.536;2024-02-23T10:47:59;1.57;;;0.80;;
3815;SDS011;1923;48.154;11.536;2024-02-23T10:50:27;2.20;;;1.13;;
3815;SDS011;1923;48.154;11.536;2024-02-23T10:52:55;2.67;;;0.70;;
3815;SDS011;1923;48.154;11.536;2024-02-23T10:55:25;0.80;;;0.60;;
3815;SDS011;1923;48.154;11.536;2024-02-23T10:57:55;2.40;;;1.60;;
3815;SDS011;1923;48.154;11.536;2024-02-23T11:00:26;2.30;;;0.70;;
3815;SDS011;1923;48.154;11.536;2024-02-23T11:02:54;2.20;;;0.80;;
3815;SDS011;1923;48.154;11.536;2024-02-23T11:05:24;2.70;;;1.10;;
3815;SDS011;1923;48.154;11.536;2024-02-23T11:07:55;3.23;;;1.60;;
3815;SDS011;1923;48.154;11.536;2024-02-23T11:10:23;2.30;;;0.90;;
3815;SDS011;1923;48.154;11.536;2024-02-23T11:12:57;3.47;;;0.93;;
3815;SDS011;1923;48.154;11.536;2024-02-23T11:15:26;0.70;;;0.60;;
3815;SDS011;1923;48.154;11.536;2024-02-23T11:18:21;2.50;;;0.90;;
3815;SDS011;1923;48.154;11.536;2024-02-23T11:20:55;1.33;;;0.77;;
3815;SDS011;1923;48.154;11.536;2024-02-23T11:23:26;2.53;;;0.70;;
3815;SDS011;1923;48.154;11.536;2024-02-23T11:26:07;2.03;;;0.60;;
3815;SDS011;1923;48.154;11.536;2024-02-23T11:28:43;1.00;;;0.53;;
3815;SDS011;1923;48.154;11.536;2024-02-23T11:31:15;2.40;;;0.87;;
3815;SDS011;1923;48.154;11.536;2024-02-23T11:33:49;2.90;;;0.80;;
3815;SDS011;1923;48.154;11.536;2024-02-23T11:36:27;1.83;;;1.00;;
3815;SDS011;1923;48.154;11.536;2024-02-23T11:38:57;1.57;;;0.93;;
3815;SDS011;1923;48.154;11.536;2024-02-23T11:41:26;1.40;;;0.53;;
3815;SDS011;1923;48.154;11.536;2024-02-23T11:43:56;2.80;;;1.10;;
3815;SDS011;1923;48.154;11.536;2024-02-23T11:46:25;1.70;;;0.70;;
3815;SDS011;1923;48.154;11.536;2024-02-23T11:48:53;2.20;;;0.63;;
3815;SDS011;1923;48.154;11.536;2024-02-23T11:51:22;3.83;;;1.30;;
3815;SDS011;1923;48.154;11.536;2024-02-23T11:53:55;4.87;;;0.70;;
3815;SDS011;1923;48.154;11.536;2024-02-23T11:56:24;3.00;;;1.30;;
3815;SDS011;1923;48.154;11.536;2024-02-23T11:58:53;1.53;;;0.80;;
3815;SDS011;1923;48.154;11.536;2024-02-23T12:01:21;2.97;;;0.80;;
3815;SDS011;1923;48.154;11.536;2024-02-23T12:03:49;3.40;;;0.90;;
3815;SDS011;1923;48.154;11.536;2024-02-23T12:06:17;2.77;;;0.83;;
3815;SDS011;1923;48.154;11.536;2024-02-23T12:08:46;1.57;;;0.80;;
3815;SDS011;1923;48.154;11.536;2024-02-23T12:11:16;1.90;;;0.60;;
3815;SDS011;1923;48.154;11.536;2024-02-23T12:13:44;1.23;;;0.70;;
3815;SDS011;1923;48.154;11.536;2024-02-23T12:16:14;0.97;;;0.50;;
3815;SDS011;1923;48.154;11.536;2024-02-23T12:18:42;0.90;;;0.60;;
3815;SDS011;1923;48.154;11.536;2024-02-23T12:21:10;2.00;;;0.80;;
3815;SDS011;1923;48.154;11.536;2024-02-23T12:23:40;3.60;;;1.17;;
3815;SDS011;1923;48.154;11.536;2024-02-23T12:26:09;4.47;;;0.77;;
3815;SDS011;1923;48.154;11.536;2024-02-23T12:28:39;1.90;;;1.17;;
3815;SDS011;1923;48.154;11.536;2024-02-23T12:31:07;2.77;;;1.60;;
3815;SDS011;1923;48.154;11.536;2024-02-23T12:33:36;1.83;;;0.87;;
3815;SDS011;1923;48.154;11.536;2024-02-23T12:36:06;7.30;;;0.87;;
3815;SDS011;1923;48.154;11.536;2024-02-23T12:38:36;2.00;;;0.70;;
3815;SDS011;1923;48.154;11.536;2024-02-23T12:41:04;1.77;;;0.80;;
3815;SDS011;1923;48.154;11.536;2024-02-23T12:43:32;0.70;;;0.50;;
3815;SDS011;1923;48.154;11.536;2024-02-23T12:46:04;0.70;;;0.40;;
3815;SDS011;1923;48.154;11.536;2024-02-23T12:48:33;2.77;;;1.00;;
3815;SDS011;1923;48.154;11.536;2024-02-23T12:51:00;4.00;;;1.10;;
3815;SDS011;1923;48.154;11.536;2024-02-23T12:53:33;2.53;;;0.60;;
3815;SDS011;1923;48.154;11.536;2024-02-23T12:56:03;1.10;;;0.53;;
3815;SDS011;1923;48.154;11.536;2024-02-23T12:58:32;1.13;;;0.50;;
3815;SDS011;1923;48.154;11.536;2024-02-23T13:01:00;2.60;;;0.50;;
3815;SDS011;1923;48.154;11.536;2024-02-23T13:03:31;1.60;;;0.73;;
3815;SDS011;1923;48.154;11.536;2024-02-23T13:06:00;1.30;;;0.40;;
3815;SDS011;1923;48.154;11.536;2024-02-23T13:08:28;2.30;;;0.63;;
3815;SDS011;1923;48.154;11.536;2024-02-23T13:10:57;0.97;;;0.70;;
3815;SDS011;1923;48.154;11.536;2024-02-23T13:13:25;1.27;;;0.63;;
3815;SDS011;1923;48.154;11.536;2024-02-23T13:15:53;1.30;;;0.70;;
3815;SDS011;1923;48.154;11.536;2024-02-23T13:18:23;0.97;;;0.77;;
3815;SDS011;1923;48.154;11.536;2024-02-23T13:20:52;5.73;;;0.80;;
3815;SDS011;1923;48.154;11.536;2024-02-23T13:23:20;1.47;;;0.70;;
3815;SDS011;1923;48.154;11.536;2024-02-23T13:25:49;2.10;;;0.87;;
3815;SDS011;1923;48.154;11.536;2024-02-23T13:28:17;0.80;;;0.63;;
3815;SDS011;1923;48.154;11.536;2024-02-23T13:30:45;2.83;;;0.70;;
3815;SDS011;1923;48.154;11.536;2024-02-23T13:33:13;1.80;;;0.80;;
3815;SDS011;1923;48.154;11.536;2024-02-23T13:35:42;0.83;;;0.50;;
3815;SDS011;1923;48.154;11.536;2024-02-23T13:38:12;0.70;;;0.50;;
3815;SDS011;1923;48.154;11.536;2024-02-23T13:40:40;2.27;;;0.63;;
3815;SDS011;1923;48.154;11.536;2024-02-23T13:43:08;1.30;;;0.83;;
3815;SDS011;1923;48.154;11.536;2024-02-23T13:45:47;1.13;;;0.50;;
3815;SDS011;1923;48.154;11.536;2024-02-23T13:48:16;1.27;;;0.70;;
3815;SDS011;1923;48.154;11.536;2024-02-23T13:50:46;1.20;;;0.80;;
3815;SDS011;1923;48.154;11.536;2024-02-23T13:53:16;1.13;;;0.57;;
3815;SDS011;1923;48.154;11.536;2024-02-23T13:55:44;2.00;;;0.70;;
3815;SDS011;1923;48.154;11.536;2024-02-23T13:58:12;0.93;;;0.60;;
3815;SDS011;1923;48.154;11.536;2024-02-23T14:00:40;2.63;;;1.43;;
3815;SDS011;1923;48.154;11.536;2024-02-23T14:03:10;1.03;;;0.53;;
3815;SDS011;1923;48.154;11.536;2024-02-23T14:05:45;2.27;;;0.73;;
3815;SDS011;1923;48.154;11.536;2024-02-23T14:08:15;1.60;;;0.80;;
3815;SDS011;1923;48.154;11.536;2024-02-23T14:10:43;0.93;;;0.40;;
3815;SDS011;1923;48.154;11.536;2024-02-23T14:13:12;2.40;;;0.50;;
3815;SDS011;1923;48.154;11.536;2024-02-23T14:15:40;1.20;;;0.40;;
3815;SDS011;1923;48.154;11.536;2024-02-23T14:18:08;1.43;;;0.80;;
3815;SDS011;1923;48.154;11.536;2024-02-23T14:20:36;0.93;;;0.60;;
3815;SDS011;1923;48.154;11.536;2024-02-23T14:23:04;0.80;;;0.50;;
3815;SDS011;1923;48.154;11.536;2024-02-23T14:25:34;1.30;;;0.83;;
3815;SDS011;1923;48.154;11.536;2024-02-23T14:28:02;1.03;;;0.57;;
3815;SDS011;1923;48.154;11.536;2024-02-23T14:30:31;1.13;;;0.60;;
3815;SDS011;1923;48.154;11.536;2024-02-23T14:32:59;0.50;;;0.37;;
3815;SDS011;1923;48.154;11.536;2024-02-23T14:35:27;2.30;;;0.57;;
3815;SDS011;1923;48.154;11.536;2024-02-23T14:37:56;0.60;;;0.40;;
3815;SDS011;1923;48.154;11.536;2024-02-23T14:40:24;0.60;;;0.40;;
3815;SDS011;1923;48.154;11.536;2024-02-23T14:42:53;1.30;;;0.50;;
3815;SDS011;1923;48.154;11.536;2024-02-23T14:45:21;0.50;;;0.30;;
3815;SDS011;1923;48.154;11.536;2024-02-23T14:47:50;0.73;;;0.30;;
3815;SDS011;1923;48.154;11.536;2024-02-23T14:50:18;1.50;;;0.70;;
3815;SDS011;1923;48.154;11.536;2024-02-23T14:52:46;1.77;;;0.70;;
3815;SDS011;1923;48.154;11.536;2024-02-23T14:55:14;0.70;;;0.60;;
3815;SDS011;1923;48.154;11.536;2024-02-23T14:57:42;0.60;;;0.40;;
3815;SDS011;1923;48.154;11.536;2024-02-23T15:00:12;1.00;;;0.60;;
3815;SDS011;1923;48.154;11.536;2024-02-23T15:02:41;2.00;;;0.47;;
3815;SDS011;1923;48.154;11.536;2024-02-23T15:05:09;2.00;;;0.80;;
3815;SDS011;1923;48.154;11.536;2024-02-23T15:07:38;2.30;;;0.67;;
3815;SDS011;1923;48.154;11.536;2024-02-23T15:10:06;1.07;;;0.60;;
3815;SDS011;1923;48.154;11.536;2024-02-23T15:12:35;2.50;;;0.70;;